createdAt,value
2018-09-01T00:01:16.397Z,102242.41
2018-09-01T00:04:40.752Z,102236.30
2018-09-01T00:08:05.176Z,102238.62
2018-09-01T00:11:29.697Z,102232.27
2018-09-01T00:14:54.075Z,102231.98
2018-09-01T00:18:18.492Z,102238.08
2018-09-01T00:21:42.932Z,102240.22
2018-09-01T00:25:07.596Z,102240.80
2018-09-01T00:28:31.973Z,102235.17
2018-09-01T00:31:56.398Z,102240.44
2018-09-01T00:35:20.781Z,102232.12
2018-09-01T00:39:16.913Z,102239.77
2018-09-01T00:42:41.318Z,102236.19
2018-09-01T00:46:05.991Z,102245.27
2018-09-01T00:49:30.461Z,102247.26
2018-09-01T00:52:54.854Z,102246.86
2018-09-01T00:56:19.308Z,102246.86
2018-09-01T00:59:43.734Z,102251.52
2018-09-01T01:03:08.148Z,102253.25
2018-09-01T01:06:32.556Z,102253.56
2018-09-01T01:09:56.953Z,102253.92
2018-09-01T01:13:21.414Z,102249.31
2018-09-01T01:16:45.952Z,102254.63
2018-09-01T01:20:10.425Z,102258.72
2018-09-01T01:23:34.800Z,102253.87
2018-09-01T01:26:59.207Z,102255.62
2018-09-01T01:30:23.609Z,102259.68
2018-09-01T01:33:48.030Z,102266.14
2018-09-01T01:37:12.430Z,102270.51
2018-09-01T01:40:36.830Z,102269.10
2018-09-01T01:44:01.229Z,102269.02
2018-09-01T01:47:25.663Z,102263.69
2018-09-01T01:50:50.056Z,102265.44
2018-09-01T01:54:14.459Z,102268.05
2018-09-01T01:57:44.140Z,102272.67
2018-09-01T02:01:08.555Z,102271.63
2018-09-01T02:04:32.969Z,102266.87
2018-09-01T02:07:57.349Z,102272.28
2018-09-01T02:11:21.764Z,102265.25
2018-09-01T02:14:46.194Z,102262.02
2018-09-01T02:18:10.712Z,102265.41
2018-09-01T02:21:35.099Z,102263.36
2018-09-01T02:24:59.491Z,102263.84
2018-09-01T02:28:23.868Z,102264.55
2018-09-01T02:31:48.280Z,102273.43
2018-09-01T02:35:12.711Z,102264.49
2018-09-01T02:38:37.108Z,102263.39
2018-09-01T02:42:01.511Z,102266.80
2018-09-01T02:45:25.898Z,102271.25
2018-09-01T02:48:50.289Z,102270.53
2018-09-01T02:52:14.829Z,102276.41
2018-09-01T02:55:39.241Z,102272.27
2018-09-01T02:59:04.055Z,102272.81
2018-09-01T03:02:33.671Z,102267.88
2018-09-01T03:05:58.053Z,102270.09
2018-09-01T03:09:23.000Z,102270.77
2018-09-01T03:12:47.399Z,102271.16
2018-09-01T03:16:11.843Z,102271.44
2018-09-01T03:19:36.268Z,102268.34
2018-09-01T03:23:00.668Z,102263.77
2018-09-01T03:26:25.053Z,102275.30
2018-09-01T03:29:49.438Z,102277.41
2018-09-01T03:33:13.844Z,102276.22
2018-09-01T03:36:38.240Z,102275.19
2018-09-01T03:40:02.726Z,102277.02
2018-09-01T03:43:27.280Z,102279.64
2018-09-01T03:46:51.659Z,102282.34
2018-09-01T03:50:16.045Z,102283.53
2018-09-01T03:53:40.466Z,102276.46
2018-09-01T03:57:04.860Z,102280.48
2018-09-01T04:00:29.290Z,102287.63
2018-09-01T04:03:53.719Z,102279.33
2018-09-01T04:07:18.095Z,102287.59
2018-09-01T04:10:42.536Z,102285.52
2018-09-01T04:14:06.955Z,102281.39
2018-09-01T04:17:31.437Z,102288.47
2018-09-01T04:20:55.893Z,102294.54
2018-09-01T04:24:20.338Z,102298.55
2018-09-01T04:27:44.692Z,102297.72
2018-09-01T04:31:09.060Z,102302.13
2018-09-01T04:34:33.491Z,102303.35
2018-09-01T04:37:57.940Z,102299.85
2018-09-01T04:41:22.365Z,102313.92
2018-09-01T04:44:46.710Z,102313.68
2018-09-01T04:48:11.725Z,102324.16
2018-09-01T04:51:36.231Z,102334.69
2018-09-01T04:55:00.658Z,102333.48
2018-09-01T04:58:25.050Z,102341.23
2018-09-01T05:01:49.484Z,102337.53
2018-09-01T05:05:13.871Z,102341.64
2018-09-01T05:08:38.263Z,102335.08
2018-09-01T05:12:02.634Z,102342.59
2018-09-01T05:15:27.041Z,102347.69
2018-09-01T05:18:51.692Z,102359.59
2018-09-01T05:22:16.250Z,102363.30
2018-09-01T05:25:40.842Z,102362.67
2018-09-01T05:29:05.571Z,102369.75
2018-09-01T05:32:30.048Z,102364.40
2018-09-01T05:35:54.464Z,102365.00
2018-09-01T05:39:18.867Z,102367.52
2018-09-01T05:42:43.588Z,102365.33
2018-09-01T05:46:08.261Z,102371.17
2018-09-01T05:49:32.634Z,102378.99
2018-09-01T05:52:57.144Z,102380.91
2018-09-01T05:56:21.615Z,102380.11
2018-09-01T05:59:46.061Z,102386.53
2018-09-01T06:03:10.517Z,102392.61
2018-09-01T06:06:34.992Z,102399.03
2018-09-01T06:09:59.554Z,102403.58
2018-09-01T06:13:24.158Z,102405.20
2018-09-01T06:16:48.900Z,102412.31
2018-09-01T06:20:14.613Z,102416.07
2018-09-01T06:23:39.156Z,102423.30
2018-09-01T06:27:08.605Z,102418.62
2018-09-01T06:30:35.553Z,102425.44
2018-09-01T06:34:06.533Z,102418.95
2018-09-01T06:37:31.082Z,102418.20
2018-09-01T06:40:55.529Z,102422.55
2018-09-01T06:44:20.116Z,102422.20
2018-09-01T06:48:47.933Z,102418.66
2018-09-01T07:00:03.565Z,102425.31
2018-09-01T07:03:28.084Z,102424.44
2018-09-01T07:06:52.671Z,102422.00
2018-09-01T07:10:17.175Z,102429.16
2018-09-01T07:13:41.771Z,102435.92
2018-09-01T07:17:06.618Z,102435.83
2018-09-01T07:20:30.964Z,102430.65
2018-09-01T07:23:55.391Z,102431.64
2018-09-01T07:27:19.811Z,102434.08
2018-09-01T07:30:44.338Z,102439.66
2018-09-01T07:34:08.686Z,102446.97
2018-09-01T07:37:33.137Z,102449.22
2018-09-01T07:40:57.527Z,102449.50
2018-09-01T07:44:21.951Z,102449.80
2018-09-01T07:47:46.336Z,102458.94
2018-09-01T07:51:10.880Z,102458.52
2018-09-01T07:54:35.669Z,102463.64
2018-09-01T07:58:00.034Z,102469.08
2018-09-01T08:01:24.432Z,102465.71
2018-09-01T08:04:49.231Z,102466.05
2018-09-01T08:08:13.635Z,102469.70
2018-09-01T08:11:38.389Z,102471.89
2018-09-01T08:15:02.947Z,102475.11
2018-09-01T08:18:27.527Z,102472.25
2018-09-01T08:21:52.001Z,102470.53
2018-09-01T08:25:16.615Z,102472.22
2018-09-01T08:28:41.090Z,102471.63
2018-09-01T08:32:05.497Z,102472.71
2018-09-01T08:35:29.949Z,102469.17
2018-09-01T08:38:54.380Z,102470.37
2018-09-01T08:42:18.878Z,102472.65
2018-09-01T08:45:43.281Z,102468.28
2018-09-01T08:49:07.766Z,102478.26
2018-09-01T08:52:32.172Z,102474.45
2018-09-01T08:55:56.581Z,102477.75
2018-09-01T08:59:21.102Z,102484.81
2018-09-01T09:02:45.646Z,102480.72
2018-09-01T09:06:10.363Z,102485.19
2018-09-01T09:09:34.818Z,102487.84
2018-09-01T09:12:59.240Z,102486.28
2018-09-01T09:16:23.634Z,102488.95
2018-09-01T09:19:48.086Z,102481.27
2018-09-01T09:23:12.581Z,102482.02
2018-09-01T09:26:37.018Z,102487.66
2018-09-01T09:30:01.521Z,102477.70
2018-09-01T09:33:26.017Z,102483.03
2018-09-01T09:36:50.503Z,102483.55
2018-09-01T09:40:14.966Z,102491.98
2018-09-01T09:43:39.559Z,102497.78
2018-09-01T09:47:04.005Z,102496.04
2018-09-01T09:50:28.444Z,102503.69
2018-09-01T09:53:52.840Z,102494.79
2018-09-01T09:57:17.288Z,102484.83
2018-09-01T10:00:46.884Z,102485.67
2018-09-01T10:04:12.070Z,102484.25
2018-09-01T10:07:36.716Z,102484.16
2018-09-01T10:11:01.394Z,102481.34
2018-09-01T10:14:25.977Z,102489.63
2018-09-01T10:17:50.456Z,102490.39
2018-09-01T10:21:14.879Z,102485.70
2018-09-01T10:24:39.329Z,102474.54
2018-09-01T10:28:03.883Z,102477.89
2018-09-01T10:31:28.290Z,102473.40
2018-09-01T10:34:52.716Z,102478.53
2018-09-01T10:38:17.159Z,102477.41
2018-09-01T10:41:41.591Z,102471.31
2018-09-01T10:45:06.188Z,102456.20
2018-09-01T10:48:30.601Z,102466.83
2018-09-01T10:51:55.024Z,102477.68
2018-09-01T10:55:19.497Z,102464.59
2018-09-01T10:58:43.973Z,102468.88
2018-09-01T11:02:08.422Z,102462.84
2018-09-01T11:05:32.916Z,102468.53
2018-09-01T11:08:57.251Z,102462.80
2018-09-01T11:12:22.069Z,102466.44
2018-09-01T11:15:46.882Z,102466.95
2018-09-01T11:19:11.935Z,102464.59
2018-09-01T11:22:36.355Z,102467.72
2018-09-01T11:26:00.731Z,102455.10
2018-09-01T11:29:25.151Z,102454.10
2018-09-01T11:32:49.595Z,102455.77
2018-09-01T11:36:13.997Z,102454.30
2018-09-01T11:39:38.585Z,102452.85
2018-09-01T11:43:03.215Z,102447.44
2018-09-01T11:46:27.448Z,102455.20
2018-09-01T11:49:51.955Z,102444.45
2018-09-01T11:53:16.490Z,102451.33
2018-09-01T11:56:40.739Z,102440.00
2018-09-01T12:00:05.296Z,102441.04
2018-09-01T12:03:29.835Z,102441.91
2018-09-01T12:06:54.282Z,102443.52
2018-09-01T12:10:18.760Z,102438.03
2018-09-01T12:13:43.177Z,102438.04
2018-09-01T12:17:07.755Z,102442.95
2018-09-01T12:20:32.176Z,102441.96
2018-09-01T12:23:56.703Z,102438.44
2018-09-01T12:27:21.122Z,102434.06
2018-09-01T12:30:45.611Z,102428.89
2018-09-01T12:34:10.042Z,102427.03
2018-09-01T12:37:34.442Z,102415.40
2018-09-01T12:40:58.828Z,102416.86
2018-09-01T12:44:23.470Z,102419.28
2018-09-01T12:47:47.922Z,102420.59
2018-09-01T12:51:12.360Z,102415.53
2018-09-01T12:54:36.764Z,102409.00
2018-09-01T12:58:01.218Z,102401.21
2018-09-01T13:01:25.623Z,102407.02
2018-09-01T13:04:50.458Z,102404.98
2018-09-01T13:08:14.913Z,102392.73
2018-09-01T13:11:39.339Z,102396.36
2018-09-01T13:15:03.799Z,102392.67
2018-09-01T13:18:28.248Z,102396.69
2018-09-01T13:21:52.684Z,102403.13
2018-09-01T13:25:17.238Z,102393.40
2018-09-01T13:28:41.610Z,102396.36
2018-09-01T13:32:06.036Z,102396.65
2018-09-01T13:35:30.476Z,102394.09
2018-09-01T13:38:55.425Z,102403.11
2018-09-01T13:42:19.837Z,102404.94
2018-09-01T13:45:44.246Z,102402.13
2018-09-01T13:49:08.666Z,102404.03
2018-09-01T13:52:33.106Z,102407.23
2018-09-01T13:55:57.702Z,102402.09
2018-09-01T13:59:22.191Z,102404.04
2018-09-01T14:02:46.781Z,102402.21
2018-09-01T14:06:11.259Z,102401.51
2018-09-01T14:09:35.772Z,102396.20
2018-09-01T14:13:00.175Z,102392.78
2018-09-01T14:16:24.608Z,102398.44
2018-09-01T14:19:49.035Z,102395.12
2018-09-01T14:23:13.567Z,102396.55
2018-09-01T14:26:38.065Z,102389.37
2018-09-01T14:30:02.474Z,102387.47
2018-09-01T14:33:26.863Z,102376.16
2018-09-01T14:36:51.318Z,102375.36
2018-09-01T14:40:15.758Z,102378.14
2018-09-01T14:43:40.148Z,102369.11
2018-09-01T14:47:04.887Z,102365.37
2018-09-01T14:50:29.267Z,102366.23
2018-09-01T14:53:53.827Z,102365.54
2018-09-01T14:57:18.294Z,102369.83
2018-09-01T15:00:42.772Z,102365.11
2018-09-01T15:04:07.219Z,102360.00
2018-09-01T15:07:31.629Z,102367.56
2018-09-01T15:10:56.069Z,102369.09
2018-09-01T15:14:20.531Z,102357.41
2018-09-01T15:17:47.460Z,102356.75
2018-09-01T15:21:12.104Z,102361.12
2018-09-01T15:24:36.588Z,102365.41
2018-09-01T15:28:01.052Z,102367.24
2018-09-01T15:31:25.482Z,102363.20
2018-09-01T15:34:49.932Z,102352.91
2018-09-01T15:38:14.332Z,102352.92
2018-09-01T15:41:38.751Z,102354.49
2018-09-01T15:45:03.224Z,102348.83
2018-09-01T15:48:27.605Z,102355.11
2018-09-01T15:51:52.001Z,102357.56
2018-09-01T15:55:16.420Z,102354.23
2018-09-01T15:58:40.969Z,102343.75
2018-09-01T16:02:05.650Z,102353.03
2018-09-01T16:05:30.108Z,102344.63
2018-09-01T16:08:54.526Z,102345.09
2018-09-01T16:12:18.975Z,102344.80
2018-09-01T16:15:43.396Z,102340.12
2018-09-01T16:19:07.845Z,102345.80
2018-09-01T16:22:32.263Z,102342.65
2018-09-01T16:25:56.670Z,102349.73
2018-09-01T16:29:21.176Z,102339.77
2018-09-01T16:32:45.733Z,102341.83
2018-09-01T16:36:10.247Z,102346.88
2018-09-01T16:39:34.675Z,102349.28
2018-09-01T16:42:59.120Z,102349.81
2018-09-01T16:46:23.516Z,102351.26
2018-09-01T16:49:48.033Z,102352.44
2018-09-01T16:53:12.486Z,102356.55
2018-09-01T16:56:36.909Z,102357.00
2018-09-01T17:00:01.321Z,102361.17
2018-09-01T17:03:26.094Z,102366.39
2018-09-01T17:06:50.712Z,102367.40
2018-09-01T17:10:15.304Z,102368.59
2018-09-01T17:13:39.760Z,102363.74
2018-09-01T17:17:04.393Z,102362.99
2018-09-01T17:20:28.804Z,102365.03
2018-09-01T17:23:53.347Z,102365.82
2018-09-01T17:27:18.001Z,102367.19
2018-09-01T17:30:42.470Z,102362.32
2018-09-01T17:34:07.021Z,102374.81
2018-09-01T17:37:31.603Z,102371.45
2018-09-01T17:40:56.192Z,102374.47
2018-09-01T17:44:20.704Z,102364.53
2018-09-01T17:47:45.322Z,102376.52
2018-09-01T17:51:12.928Z,102376.23
2018-09-01T17:54:37.690Z,102377.02
2018-09-01T17:58:02.164Z,102375.59
2018-09-01T18:01:28.384Z,102380.29
2018-09-01T18:04:52.878Z,102386.13
2018-09-01T18:08:18.294Z,102377.86
2018-09-01T18:11:43.193Z,102389.63
2018-09-01T18:15:10.038Z,102388.95
2018-09-01T18:18:34.964Z,102385.90
2018-09-01T18:22:00.124Z,102386.20
2018-09-01T18:25:24.538Z,102387.30
2018-09-01T18:28:49.435Z,102389.05
2018-09-01T18:32:14.149Z,102394.03
2018-09-01T18:35:38.878Z,102394.28
2018-09-01T18:39:04.297Z,102398.64
2018-09-01T18:42:28.801Z,102395.95
2018-09-01T18:45:53.994Z,102401.52
2018-09-01T18:49:18.935Z,102402.23
2018-09-01T18:52:43.717Z,102401.39
2018-09-01T18:56:08.186Z,102402.52
2018-09-01T18:59:33.204Z,102403.23
2018-09-01T19:02:57.853Z,102404.94
2018-09-01T19:06:23.136Z,102402.72
2018-09-01T19:09:47.815Z,102404.91
2018-09-01T19:13:13.555Z,102400.30
2018-09-01T19:16:38.855Z,102403.61
2018-09-01T19:20:03.561Z,102411.36
2018-09-01T19:23:28.794Z,102415.45
2018-09-01T19:26:53.633Z,102417.39
2018-09-01T19:30:18.102Z,102411.34
2018-09-01T19:33:42.601Z,102414.58
2018-09-01T19:37:07.034Z,102419.86
2018-09-01T19:40:31.662Z,102421.02
2018-09-01T19:43:56.119Z,102423.92
2018-09-01T19:47:20.537Z,102417.41
2018-09-01T19:50:44.989Z,102423.16
2018-09-01T19:54:09.579Z,102419.98
2018-09-01T19:57:34.080Z,102421.12
2018-09-01T20:00:58.504Z,102426.34
2018-09-01T20:04:23.116Z,102419.91
2018-09-01T20:07:47.662Z,102424.45
2018-09-01T20:11:12.320Z,102428.45
2018-09-01T20:14:37.060Z,102427.84
2018-09-01T20:18:02.100Z,102430.81
2018-09-01T20:21:27.948Z,102430.68
2018-09-01T20:24:53.115Z,102433.26
2018-09-01T20:28:18.424Z,102439.45
2018-09-01T20:31:42.852Z,102434.95
2018-09-01T20:35:12.727Z,102440.79
2018-09-01T20:38:37.806Z,102440.40
2018-09-01T20:42:03.219Z,102438.55
2018-09-01T20:45:27.880Z,102435.17
2018-09-01T20:48:53.647Z,102437.34
2018-09-01T20:52:18.352Z,102438.59
2018-09-01T20:55:42.991Z,102440.66
2018-09-01T20:59:07.609Z,102445.61
2018-09-01T21:02:32.080Z,102441.60
2018-09-01T21:05:56.611Z,102455.31
2018-09-01T21:09:21.239Z,102439.78
2018-09-01T21:12:45.859Z,102447.08
2018-09-01T21:16:10.387Z,102449.72
2018-09-01T21:19:34.847Z,102447.58
2018-09-01T21:22:59.584Z,102440.70
2018-09-01T21:26:24.393Z,102442.02
2018-09-01T21:29:49.043Z,102446.36
2018-09-01T21:33:13.499Z,102451.30
2018-09-01T21:36:38.132Z,102442.75
2018-09-01T21:40:02.635Z,102446.73
2018-09-01T21:43:27.447Z,102447.91
2018-09-01T21:46:52.021Z,102444.70
2018-09-01T21:50:16.578Z,102446.34
2018-09-01T21:53:41.127Z,102441.41
2018-09-01T21:57:06.126Z,102440.36
2018-09-01T22:00:30.826Z,102441.72
2018-09-01T22:03:55.271Z,102438.81
2018-09-01T22:07:21.408Z,102440.30
2018-09-01T22:10:45.807Z,102444.05
2018-09-01T22:14:10.362Z,102444.38
2018-09-01T22:17:34.851Z,102448.03
2018-09-01T22:20:59.240Z,102439.29
2018-09-01T22:24:23.632Z,102441.94
2018-09-01T22:27:48.142Z,102443.88
2018-09-01T22:31:12.582Z,102441.24
2018-09-01T22:34:37.012Z,102437.52
2018-09-01T22:38:01.449Z,102437.69
2018-09-01T22:41:25.876Z,102431.77
2018-09-01T22:44:50.322Z,102438.64
2018-09-01T22:48:14.699Z,102431.38
2018-09-01T22:51:39.142Z,102428.47
2018-09-01T22:55:03.547Z,102431.67
2018-09-01T22:58:27.968Z,102425.15
2018-09-01T23:01:52.398Z,102430.91
2018-09-01T23:05:16.793Z,102439.55
2018-09-01T23:08:41.180Z,102435.36
2018-09-01T23:12:05.585Z,102436.84
2018-09-01T23:15:30.143Z,102426.16
2018-09-01T23:18:54.567Z,102432.55
2018-09-01T23:22:18.957Z,102429.24
2018-09-01T23:25:43.351Z,102432.03
2018-09-01T23:29:07.781Z,102431.62
2018-09-01T23:32:32.215Z,102434.27
2018-09-01T23:35:56.635Z,102438.23
2018-09-01T23:39:21.104Z,102444.34
2018-09-01T23:42:45.527Z,102441.73
2018-09-01T23:46:10.041Z,102437.86
2018-09-01T23:49:34.454Z,102436.49
2018-09-01T23:52:58.887Z,102440.38
2018-09-01T23:56:23.280Z,102434.40
2018-09-01T23:59:47.726Z,102429.58
